createdAt,value
2022-09-26T00:01:43.691Z,7.40
2022-09-26T00:04:16.739Z,6.27
2022-09-26T00:06:45.154Z,5.57
2022-09-26T00:09:14.533Z,4.10
2022-09-26T00:11:45.225Z,4.40
2022-09-26T00:14:18.741Z,3.37
2022-09-26T00:16:47.893Z,3.13
2022-09-26T00:19:16.421Z,3.47
2022-09-26T00:21:44.863Z,2.47
2022-09-26T00:24:13.215Z,2.67
2022-09-26T00:26:42.698Z,2.37
2022-09-26T00:29:13.648Z,2.70
2022-09-26T00:31:45.994Z,2.23
2022-09-26T00:34:15.982Z,2.37
2022-09-26T00:36:44.228Z,2.60
2022-09-26T00:39:15.384Z,2.00
2022-09-26T00:41:45.706Z,2.37
2022-09-26T00:44:42.263Z,2.13
2022-09-26T00:47:38.085Z,1.80
2022-09-26T00:50:14.924Z,2.20
2022-09-26T00:52:50.475Z,1.83
2022-09-26T00:55:24.068Z,2.20
2022-09-26T00:58:04.424Z,1.57
2022-09-26T01:00:32.815Z,1.30
2022-09-26T01:03:02.147Z,1.00
2022-09-26T01:05:32.237Z,1.50
2022-09-26T01:08:01.873Z,1.10
2022-09-26T01:10:31.213Z,1.23
2022-09-26T01:13:04.062Z,0.77
2022-09-26T01:15:32.319Z,0.63
2022-09-26T01:18:00.433Z,0.47
2022-09-26T01:20:37.534Z,0.40
2022-09-26T01:23:54.835Z,0.37
2022-09-26T01:27:21.903Z,0.67
2022-09-26T01:30:17.690Z,0.57
2022-09-26T01:33:26.954Z,0.50
2022-09-26T01:36:34.735Z,0.30
2022-09-26T01:39:23.521Z,0.50
2022-09-26T01:42:00.612Z,0.30
2022-09-26T01:44:39.882Z,0.50
2022-09-26T01:47:17.835Z,0.23
2022-09-26T01:49:55.952Z,0.60
2022-09-26T01:52:34.131Z,0.47
2022-09-26T01:55:10.578Z,0.43
2022-09-26T01:57:44.776Z,0.53
2022-09-26T02:00:14.176Z,0.40
2022-09-26T02:02:47.508Z,0.53
2022-09-26T02:05:26.560Z,0.50
2022-09-26T02:08:01.066Z,0.43
2022-09-26T02:10:36.013Z,0.30
2022-09-26T02:13:12.521Z,0.40
2022-09-26T02:15:41.444Z,0.33
2022-09-26T02:18:19.963Z,0.40
2022-09-26T02:20:56.072Z,0.40
2022-09-26T02:23:24.093Z,0.47
2022-09-26T02:25:52.117Z,0.40
2022-09-26T02:28:20.709Z,0.40
2022-09-26T02:30:53.310Z,0.60
2022-09-26T02:33:22.706Z,0.47
2022-09-26T02:35:57.445Z,0.63
2022-09-26T02:38:29.610Z,0.60
2022-09-26T02:41:06.835Z,0.40
2022-09-26T02:43:51.245Z,0.37
2022-09-26T02:47:11.390Z,0.40
2022-09-26T02:50:04.300Z,0.30
2022-09-26T02:52:45.913Z,0.30
2022-09-26T02:55:23.059Z,0.60
2022-09-26T02:58:05.512Z,0.30
2022-09-26T03:00:53.347Z,0.40
2022-09-26T03:03:32.841Z,0.50
2022-09-26T03:06:06.993Z,0.23
2022-09-26T03:08:41.905Z,0.43
2022-09-26T03:11:17.655Z,0.43
2022-09-26T03:13:48.334Z,0.33
2022-09-26T03:16:16.706Z,0.63
2022-09-26T03:18:53.433Z,0.50
2022-09-26T03:21:23.184Z,0.47
2022-09-26T03:23:52.057Z,0.20
2022-09-26T03:26:24.623Z,0.23
2022-09-26T03:28:53.883Z,0.20
2022-09-26T03:31:22.305Z,0.30
2022-09-26T03:33:50.462Z,0.20
2022-09-26T03:36:19.048Z,0.27
2022-09-26T03:38:48.685Z,0.40
2022-09-26T03:41:16.835Z,0.30
2022-09-26T03:43:44.850Z,0.20
2022-09-26T03:46:13.772Z,0.43
2022-09-26T03:48:42.118Z,0.30
2022-09-26T03:51:13.637Z,0.20
2022-09-26T03:53:45.442Z,0.40
2022-09-26T03:56:17.975Z,0.30
2022-09-26T03:58:48.994Z,0.27
2022-09-26T04:01:20.999Z,0.30
2022-09-26T04:03:51.552Z,0.40
2022-09-26T04:06:21.138Z,0.57
2022-09-26T04:08:51.864Z,0.10
2022-09-26T04:11:24.549Z,0.20
2022-09-26T04:13:54.060Z,0.40
2022-09-26T04:16:23.865Z,0.23
2022-09-26T04:18:57.577Z,0.27
2022-09-26T04:21:27.283Z,0.20
2022-09-26T04:23:56.040Z,0.20
2022-09-26T04:26:25.541Z,0.40
2022-09-26T04:28:56.950Z,0.40
2022-09-26T04:31:27.712Z,0.33
2022-09-26T04:33:56.306Z,0.30
2022-09-26T04:36:25.135Z,0.40
2022-09-26T04:38:53.219Z,0.60
2022-09-26T04:41:23.084Z,0.40
2022-09-26T04:43:54.603Z,0.67
2022-09-26T04:46:30.210Z,0.27
2022-09-26T04:49:02.401Z,0.67
2022-09-26T04:51:32.919Z,0.37
2022-09-26T04:54:00.960Z,0.30
2022-09-26T04:56:30.847Z,0.30
2022-09-26T04:59:01.174Z,0.30
2022-09-26T05:01:29.624Z,0.30
2022-09-26T05:03:58.376Z,0.50
2022-09-26T05:06:26.656Z,0.30
2022-09-26T05:08:55.006Z,0.23
2022-09-26T05:11:23.033Z,0.30
2022-09-26T05:13:53.597Z,0.30
2022-09-26T05:16:24.018Z,0.20
2022-09-26T05:18:53.314Z,0.30
2022-09-26T05:21:21.574Z,0.33
2022-09-26T05:24:07.210Z,0.33
2022-09-26T05:26:43.025Z,0.23
2022-09-26T05:29:12.145Z,0.40
2022-09-26T05:31:41.773Z,0.40
2022-09-26T05:34:18.519Z,0.10
2022-09-26T05:36:48.318Z,0.30
2022-09-26T05:39:35.869Z,0.30
2022-09-26T05:42:08.515Z,0.23
2022-09-26T05:44:36.592Z,0.40
2022-09-26T05:47:06.129Z,0.63
2022-09-26T05:49:34.738Z,0.33
2022-09-26T05:52:03.878Z,0.30
2022-09-26T05:54:32.022Z,0.53
2022-09-26T05:57:00.499Z,0.47
2022-09-26T05:59:28.534Z,0.30
2022-09-26T06:01:57.550Z,0.40
2022-09-26T06:04:29.389Z,0.40
2022-09-26T06:06:57.395Z,0.50
2022-09-26T06:09:25.499Z,0.23
2022-09-26T06:11:53.465Z,0.50
2022-09-26T06:14:25.422Z,0.30
2022-09-26T06:16:53.580Z,0.30
2022-09-26T06:19:23.162Z,0.30
2022-09-26T06:21:52.793Z,0.40
2022-09-26T06:24:20.859Z,0.83
2022-09-26T06:26:48.863Z,0.40
2022-09-26T06:29:16.857Z,0.50
2022-09-26T06:31:45.042Z,0.50
2022-09-26T06:34:13.847Z,0.50
2022-09-26T06:36:41.874Z,0.53
2022-09-26T06:39:14.832Z,0.43
2022-09-26T06:41:43.058Z,0.30
2022-09-26T06:44:11.056Z,0.63
2022-09-26T06:46:39.108Z,0.33
2022-09-26T06:49:07.719Z,0.20
2022-09-26T06:51:38.024Z,0.37
2022-09-26T06:54:06.069Z,0.83
2022-09-26T06:56:35.487Z,0.40
2022-09-26T06:59:03.723Z,0.23
2022-09-26T07:01:32.496Z,0.20
2022-09-26T07:04:00.595Z,0.27
2022-09-26T07:06:29.023Z,0.60
2022-09-26T07:09:02.979Z,0.40
2022-09-26T07:11:50.528Z,0.67
2022-09-26T07:14:22.720Z,0.40
2022-09-26T07:16:52.046Z,0.40
2022-09-26T07:19:20.336Z,0.50
2022-09-26T07:21:49.484Z,0.33
2022-09-26T07:24:17.879Z,0.83
2022-09-26T07:26:45.859Z,0.30
2022-09-26T07:29:14.049Z,0.93
2022-09-26T07:31:43.618Z,0.60
2022-09-26T07:34:18.076Z,0.57
2022-09-26T07:36:47.401Z,0.50
2022-09-26T07:39:15.691Z,0.73
2022-09-26T07:41:45.969Z,0.70
2022-09-26T07:47:21.455Z,0.47
2022-09-26T07:50:06.983Z,0.47
2022-09-26T07:52:34.994Z,0.30
2022-09-26T07:55:03.004Z,0.57
2022-09-26T07:57:35.393Z,0.50
2022-09-26T08:00:05.825Z,0.20
2022-09-26T08:02:35.996Z,0.20
2022-09-26T08:05:05.965Z,0.17
2022-09-26T08:07:35.438Z,0.10
2022-09-26T08:10:05.545Z,0.10
2022-09-26T08:12:37.272Z,0.20
2022-09-26T08:15:07.099Z,0.20
2022-09-26T08:17:38.132Z,0.10
2022-09-26T08:20:07.866Z,0.10
2022-09-26T08:22:36.021Z,0.33
2022-09-26T08:25:06.777Z,0.30
2022-09-26T08:27:36.054Z,0.40
2022-09-26T08:30:05.242Z,0.20
2022-09-26T08:32:33.670Z,0.10
2022-09-26T08:35:03.048Z,0.30
2022-09-26T08:37:31.238Z,0.20
2022-09-26T08:40:00.658Z,0.20
2022-09-26T08:42:47.208Z,0.10
2022-09-26T08:46:03.429Z,0.20
2022-09-26T08:48:54.821Z,0.20
2022-09-26T08:51:33.384Z,0.10
2022-09-26T08:54:12.185Z,0.20
2022-09-26T08:56:47.051Z,0.30
2022-09-26T08:59:28.148Z,0.40
2022-09-26T09:02:01.518Z,0.20
2022-09-26T09:04:42.896Z,0.20
2022-09-26T09:07:23.618Z,0.10
2022-09-26T09:09:56.566Z,0.20
2022-09-26T09:12:44.230Z,0.20
2022-09-26T09:15:38.964Z,0.10
2022-09-26T09:18:24.266Z,0.10
2022-09-26T09:21:00.026Z,0.20
2022-09-26T09:23:59.796Z,0.40
2022-09-26T09:30:03.432Z,0.10
2022-09-26T09:32:49.756Z,0.13
2022-09-26T09:35:26.359Z,0.17
2022-09-26T09:37:56.090Z,0.13
2022-09-26T09:40:34.929Z,0.10
2022-09-26T09:43:08.028Z,0.10
2022-09-26T09:45:46.115Z,0.10
2022-09-26T09:48:16.225Z,0.10
2022-09-26T09:51:05.467Z,0.10
2022-09-26T09:54:25.240Z,0.27
2022-09-26T09:57:28.801Z,0.10
2022-09-26T10:00:12.643Z,0.10
2022-09-26T10:02:52.656Z,0.20
2022-09-26T10:05:36.001Z,0.10
2022-09-26T10:08:09.729Z,0.10
2022-09-26T10:10:48.118Z,0.30
2022-09-26T10:13:19.121Z,0.20
2022-09-26T10:15:58.016Z,0.30
2022-09-26T10:18:27.346Z,0.53
2022-09-26T10:20:58.689Z,0.13
2022-09-26T10:23:34.473Z,0.10
2022-09-26T10:26:06.849Z,0.10
2022-09-26T10:28:46.827Z,0.13
2022-09-26T10:31:25.838Z,0.20
2022-09-26T10:34:00.055Z,0.03
2022-09-26T10:36:34.858Z,0.10
2022-09-26T10:39:35.363Z,0.10
2022-09-26T10:42:06.924Z,0.10
2022-09-26T10:44:37.157Z,0.10
2022-09-26T10:47:09.221Z,0.10
2022-09-26T10:49:46.425Z,0.10
2022-09-26T10:52:24.487Z,0.10
2022-09-26T10:55:00.565Z,0.20
2022-09-26T10:57:39.852Z,0.10
2022-09-26T11:00:16.897Z,0.17
2022-09-26T11:02:51.793Z,0.20
2022-09-26T11:05:38.914Z,0.10
2022-09-26T11:08:10.070Z,0.10
2022-09-26T11:10:41.582Z,0.10
2022-09-26T11:13:19.733Z,0.10
2022-09-26T11:16:01.179Z,0.17
2022-09-26T11:18:48.884Z,0.10
2022-09-26T11:21:29.123Z,0.10
2022-09-26T11:24:11.715Z,0.10
2022-09-26T11:26:52.767Z,0.10
2022-09-26T11:32:31.258Z,0.10
2022-09-26T11:35:04.034Z,0.20
2022-09-26T11:38:05.699Z,0.10
2022-09-26T11:41:00.795Z,0.10
2022-09-26T11:43:52.278Z,0.10
2022-09-26T11:46:39.840Z,0.10
2022-09-26T11:49:46.046Z,0.10
2022-09-26T11:52:49.319Z,0.10
2022-09-26T11:55:31.416Z,0.20
2022-09-26T11:58:10.837Z,0.10
2022-09-26T12:00:57.963Z,0.10
2022-09-26T12:04:01.621Z,0.13
2022-09-26T12:06:41.943Z,0.23
2022-09-26T12:09:32.451Z,0.20
2022-09-26T12:12:15.223Z,0.10
2022-09-26T12:15:02.865Z,0.10
2022-09-26T12:17:49.798Z,0.10
2022-09-26T12:20:38.857Z,0.20
2022-09-26T12:23:22.415Z,0.20
2022-09-26T12:26:08.527Z,0.10
2022-09-26T12:29:06.277Z,0.10
2022-09-26T12:32:01.407Z,0.10
2022-09-26T12:35:02.629Z,0.10
2022-09-26T12:37:59.191Z,0.10
2022-09-26T12:40:40.821Z,0.20
2022-09-26T12:43:49.865Z,0.10
2022-09-26T12:46:54.364Z,0.10
2022-09-26T12:49:54.419Z,0.10
2022-09-26T12:52:45.430Z,0.10
2022-09-26T12:55:31.000Z,0.10
2022-09-26T12:58:19.262Z,0.10
2022-09-26T13:00:59.955Z,0.10
2022-09-26T13:04:05.014Z,0.00
2022-09-26T13:07:18.328Z,0.20
2022-09-26T13:10:38.575Z,0.10
2022-09-26T13:13:48.729Z,0.20
2022-09-26T13:16:34.132Z,0.10
2022-09-26T13:19:23.697Z,0.20
2022-09-26T13:22:00.082Z,0.10
2022-09-26T13:24:49.551Z,0.95
2022-09-26T13:27:24.041Z,0.10
2022-09-26T13:30:03.463Z,0.10
2022-09-26T13:32:43.744Z,0.10
2022-09-26T13:35:21.011Z,0.10
2022-09-26T13:38:14.842Z,0.20
2022-09-26T13:40:53.770Z,0.10
2022-09-26T13:43:49.882Z,0.20
2022-09-26T13:46:36.229Z,0.10
2022-09-26T13:49:27.639Z,0.10
2022-09-26T13:52:19.095Z,0.10
2022-09-26T13:55:02.214Z,0.20
2022-09-26T13:57:39.674Z,0.10
2022-09-26T14:00:48.730Z,0.10
2022-09-26T14:03:42.181Z,0.17
2022-09-26T14:06:32.088Z,0.10
2022-09-26T14:09:39.297Z,0.30
2022-09-26T14:12:33.128Z,0.20
2022-09-26T14:15:22.650Z,0.20
2022-09-26T14:18:34.737Z,0.20
2022-09-26T14:21:31.870Z,0.30
2022-09-26T14:24:39.352Z,0.10
2022-09-26T14:27:43.508Z,0.10
2022-09-26T14:30:29.045Z,0.17
2022-09-26T14:33:04.400Z,0.20
2022-09-26T14:35:35.546Z,0.10
2022-09-26T14:38:13.633Z,0.10
2022-09-26T14:40:56.665Z,0.10
2022-09-26T14:43:31.231Z,0.10
2022-09-26T14:46:05.398Z,0.10
2022-09-26T14:48:37.670Z,0.10
2022-09-26T14:51:23.265Z,0.10
2022-09-26T14:54:02.406Z,0.10
2022-09-26T14:56:41.931Z,0.27
2022-09-26T14:59:41.260Z,0.20
2022-09-26T15:02:26.842Z,0.10
2022-09-26T15:05:05.626Z,0.30
2022-09-26T15:07:42.219Z,0.20
2022-09-26T15:10:26.406Z,0.40
2022-09-26T15:13:08.764Z,0.20
2022-09-26T15:15:49.613Z,0.20
2022-09-26T15:18:34.678Z,0.30
2022-09-26T15:21:13.575Z,0.20
2022-09-26T15:23:50.721Z,0.17
2022-09-26T15:26:24.445Z,0.10
2022-09-26T15:28:56.504Z,0.20
2022-09-26T15:31:37.926Z,0.10
2022-09-26T15:34:16.260Z,0.10
2022-09-26T15:36:48.638Z,0.10
2022-09-26T15:39:42.773Z,0.10
2022-09-26T15:42:45.763Z,0.13
2022-09-26T15:45:30.492Z,0.10
2022-09-26T15:48:04.592Z,0.20
2022-09-26T15:50:42.143Z,0.10
2022-09-26T15:53:25.562Z,0.27
2022-09-26T15:56:01.392Z,0.10
2022-09-26T15:58:37.259Z,0.10
2022-09-26T16:01:06.924Z,0.10
2022-09-26T16:03:47.852Z,0.10
2022-09-26T16:06:35.740Z,0.10
2022-09-26T16:09:17.603Z,0.10
2022-09-26T16:11:51.111Z,0.10
2022-09-26T16:14:30.108Z,0.10
2022-09-26T16:17:12.514Z,0.20
2022-09-26T16:19:48.612Z,0.17
2022-09-26T16:22:40.420Z,0.20
2022-09-26T16:25:52.825Z,0.17
2022-09-26T16:28:41.880Z,0.10
2022-09-26T16:31:24.532Z,0.10
2022-09-26T16:33:56.726Z,0.13
2022-09-26T16:36:27.909Z,0.10
2022-09-26T16:38:59.697Z,0.10
2022-09-26T16:42:01.357Z,0.10
2022-09-26T16:44:33.573Z,0.10
2022-09-26T16:47:07.259Z,0.10
2022-09-26T16:49:46.710Z,0.20
2022-09-26T16:52:28.041Z,0.10
2022-09-26T16:54:57.564Z,0.10
2022-09-26T16:57:30.218Z,0.13
2022-09-26T17:00:19.752Z,0.20
2022-09-26T17:02:49.512Z,0.13
2022-09-26T17:05:21.263Z,0.10
2022-09-26T17:07:51.391Z,0.10
2022-09-26T17:10:24.171Z,0.27
2022-09-26T17:12:53.268Z,0.17
2022-09-26T17:15:28.615Z,0.20
2022-09-26T17:18:01.320Z,0.10
2022-09-26T17:20:30.173Z,0.67
2022-09-26T17:23:11.972Z,0.10
2022-09-26T17:25:52.951Z,0.10
2022-09-26T17:28:34.051Z,0.10
2022-09-26T17:31:06.463Z,0.10
2022-09-26T17:33:42.056Z,0.10
2022-09-26T17:36:20.664Z,0.10
2022-09-26T17:38:48.900Z,0.10
2022-09-26T17:41:17.201Z,0.20
2022-09-26T17:43:45.654Z,0.17
2022-09-26T17:46:16.711Z,0.10
2022-09-26T17:48:46.485Z,0.10
2022-09-26T17:51:14.979Z,0.20
2022-09-26T17:53:50.455Z,0.20
2022-09-26T17:56:20.589Z,0.10
2022-09-26T17:58:51.895Z,0.10
2022-09-26T18:01:27.336Z,0.27
2022-09-26T18:04:02.468Z,0.10
2022-09-26T18:06:33.862Z,0.20
2022-09-26T18:09:10.246Z,0.20
2022-09-26T18:11:41.647Z,0.20
2022-09-26T18:14:15.597Z,0.17
2022-09-26T18:16:44.823Z,0.20
2022-09-26T18:19:15.483Z,0.17
2022-09-26T18:21:43.685Z,0.20
2022-09-26T18:24:19.927Z,0.20
2022-09-26T18:26:51.154Z,0.20
2022-09-26T18:29:31.958Z,0.20
2022-09-26T18:32:01.376Z,0.17
2022-09-26T18:34:32.051Z,0.20
2022-09-26T18:37:01.682Z,0.30
2022-09-26T18:39:30.465Z,0.20
2022-09-26T18:42:04.993Z,0.10
2022-09-26T18:44:35.157Z,0.20
2022-09-26T18:47:06.770Z,0.20
2022-09-26T18:49:38.554Z,0.10
2022-09-26T18:52:11.975Z,0.20
2022-09-26T18:54:45.058Z,0.10
2022-09-26T18:57:31.762Z,0.20
2022-09-26T19:00:00.268Z,0.17
2022-09-26T19:02:38.394Z,0.10
2022-09-26T19:05:15.906Z,0.30
2022-09-26T19:07:45.083Z,0.20
2022-09-26T19:10:16.571Z,0.47
2022-09-26T19:12:44.869Z,0.47
2022-09-26T19:15:17.611Z,0.20
2022-09-26T19:17:45.751Z,0.20
2022-09-26T19:20:15.425Z,0.23
2022-09-26T19:22:43.828Z,0.10
2022-09-26T19:25:12.111Z,0.13
2022-09-26T19:27:49.567Z,0.10
2022-09-26T19:30:21.103Z,0.30
2022-09-26T19:32:52.794Z,0.30
2022-09-26T19:35:30.179Z,0.20
2022-09-26T19:37:59.364Z,0.30
2022-09-26T19:40:28.914Z,0.33
2022-09-26T19:42:58.091Z,0.20
2022-09-26T19:45:32.125Z,0.17
2022-09-26T19:48:00.990Z,0.20
2022-09-26T19:50:34.445Z,0.30
2022-09-26T19:53:04.539Z,0.20
2022-09-26T19:55:33.383Z,0.10
2022-09-26T19:58:11.720Z,0.20
2022-09-26T20:00:41.624Z,0.13
2022-09-26T20:03:18.456Z,0.30
2022-09-26T20:05:49.609Z,0.20
2022-09-26T20:08:22.093Z,0.20
2022-09-26T20:10:50.850Z,0.10
2022-09-26T20:13:19.490Z,0.20
2022-09-26T20:15:48.840Z,0.30
2022-09-26T20:18:22.081Z,0.20
2022-09-26T20:20:55.768Z,0.20
2022-09-26T20:23:28.007Z,0.30
2022-09-26T20:25:57.356Z,0.20
2022-09-26T20:28:25.436Z,0.20
2022-09-26T20:30:52.686Z,0.20
2022-09-26T20:33:23.054Z,0.10
2022-09-26T20:36:01.744Z,0.20
2022-09-26T20:38:36.557Z,0.20
2022-09-26T20:41:13.868Z,0.13
2022-09-26T20:43:47.012Z,0.30
2022-09-26T20:46:15.642Z,0.40
2022-09-26T20:48:48.391Z,0.50
2022-09-26T20:51:21.825Z,0.20
2022-09-26T20:53:49.939Z,0.20
2022-09-26T20:56:22.197Z,0.20
2022-09-26T20:58:50.574Z,0.40
2022-09-26T21:01:21.579Z,0.27
2022-09-26T21:03:52.716Z,0.20
2022-09-26T21:06:26.630Z,0.30
2022-09-26T21:08:54.746Z,0.30
2022-09-26T21:11:23.698Z,0.40
2022-09-26T21:13:51.832Z,0.40
2022-09-26T21:16:22.911Z,0.20
2022-09-26T21:18:53.613Z,0.40
2022-09-26T21:21:26.720Z,0.37
2022-09-26T21:23:56.326Z,0.30
2022-09-26T21:26:27.171Z,0.20
2022-09-26T21:28:57.180Z,0.23
2022-09-26T21:31:29.384Z,0.20
2022-09-26T21:34:00.272Z,0.20
2022-09-26T21:36:36.662Z,0.40
2022-09-26T21:39:06.059Z,0.20
2022-09-26T21:41:34.587Z,0.30
2022-09-26T21:44:07.307Z,0.20
2022-09-26T21:46:35.502Z,0.23
2022-09-26T21:49:04.151Z,0.30
2022-09-26T21:51:33.915Z,0.30
2022-09-26T21:54:07.353Z,0.30
2022-09-26T21:56:50.163Z,0.60
2022-09-26T21:59:22.332Z,0.40
2022-09-26T22:01:50.551Z,0.47
2022-09-26T22:04:19.031Z,0.20
2022-09-26T22:06:48.432Z,0.30
2022-09-26T22:09:16.756Z,0.20
2022-09-26T22:11:44.926Z,0.40
2022-09-26T22:14:14.064Z,0.20
2022-09-26T22:16:42.318Z,0.20
2022-09-26T22:19:10.805Z,0.10
2022-09-26T22:21:39.025Z,0.30
2022-09-26T22:24:08.505Z,0.50
2022-09-26T22:26:36.771Z,0.30
2022-09-26T22:29:05.131Z,0.20
2022-09-26T22:31:33.255Z,0.30
2022-09-26T22:34:01.350Z,0.20
2022-09-26T22:36:29.413Z,0.30
2022-09-26T22:38:57.521Z,0.20
2022-09-26T22:41:27.047Z,0.40
2022-09-26T22:43:55.150Z,0.30
2022-09-26T22:46:23.426Z,0.20
2022-09-26T22:48:51.594Z,0.33
2022-09-26T22:51:20.018Z,0.27
2022-09-26T22:53:48.070Z,0.70
2022-09-26T22:56:16.703Z,0.20
2022-09-26T22:58:49.228Z,0.40
2022-09-26T23:01:19.703Z,0.40
2022-09-26T23:03:47.914Z,0.20
2022-09-26T23:06:16.353Z,0.20
2022-09-26T23:08:44.442Z,0.20
2022-09-26T23:11:14.520Z,0.20
2022-09-26T23:13:42.739Z,0.73
2022-09-26T23:16:17.021Z,0.30
2022-09-26T23:18:45.829Z,0.50
2022-09-26T23:21:16.678Z,0.30
2022-09-26T23:23:46.432Z,0.23
2022-09-26T23:26:21.344Z,0.30
2022-09-26T23:28:49.980Z,0.20
2022-09-26T23:31:20.414Z,0.33
2022-09-26T23:33:48.588Z,0.20
2022-09-26T23:36:17.077Z,0.30
2022-09-26T23:38:45.561Z,0.33
2022-09-26T23:41:14.483Z,0.20
2022-09-26T23:43:46.343Z,0.20
2022-09-26T23:46:14.869Z,0.20
2022-09-26T23:48:44.725Z,0.30
2022-09-26T23:51:12.844Z,0.30
2022-09-26T23:53:40.913Z,0.30
2022-09-26T23:56:12.211Z,0.20
2022-09-26T23:58:40.385Z,0.30
